Time;durP1;ratioP1;P1;durP2;ratioP2;P2;SDS_P1;SDS_P2;PMS_P1;PMS_P2;Temp;Humidity;BMP_temperature;BMP_pressure;BME280_temperature;BME280_humidity;BME280_pressure;Samples;Min_cycle;Max_cycle;Signal;HPM_P1;HPM_P2
2021/07/31 00:00:18;;;;;;;8.55;3.30;;;;;;;16.99;83.86;99839.97;4905649;29;20033;-83
2021/07/31 00:02:47;;;;;;;8.60;3.50;;;;;;;16.26;83.87;99718.44;4907844;29;20009;-83
2021/07/31 00:05:13;;;;;;;7.65;3.20;;;;;;;15.83;84.00;99649.81;4903550;29;20020;-83
2021/07/31 00:07:44;;;;;;;11.45;3.72;;;;;;;16.20;83.94;99714.06;4902917;29;20040;-81
2021/07/31 00:10:13;;;;;;;7.68;3.60;;;;;;;16.59;84.24;99781.59;4911837;29;20013;-83
2021/07/31 00:12:41;;;;;;;11.13;4.15;;;;;;;15.91;84.29;99671.00;4903608;29;20021;-83
2021/07/31 00:15:09;;;;;;;9.75;4.10;;;;;;;15.78;84.41;99654.38;4912305;29;20029;-83
2021/07/31 00:17:34;;;;;;;11.38;4.03;;;;;;;16.26;84.51;99726.56;4923519;29;20045;-82
2021/07/31 00:20:00;;;;;;;10.15;4.03;;;;;;;16.77;84.56;99800.19;4921379;29;20017;-82
2021/07/31 00:22:26;;;;;;;8.65;3.70;;;;;;;15.69;84.48;99635.06;4922412;29;20021;-82
2021/07/31 00:24:52;;;;;;;8.70;3.72;;;;;;;16.14;84.59;99718.63;4918825;29;20028;-83
2021/07/31 00:27:17;;;;;;;9.63;3.80;;;;;;;16.95;84.63;99836.13;4914420;29;20033;-83
2021/07/31 00:29:43;;;;;;;9.70;4.38;;;;;;;15.88;84.57;99674.22;4902885;29;20033;-83
2021/07/31 00:32:11;;;;;;;9.43;3.78;;;;;;;15.70;84.43;99650.25;4902390;29;20021;-82
2021/07/31 00:34:37;;;;;;;8.55;3.90;;;;;;;16.48;84.82;99766.31;4902096;29;20021;-84
2021/07/31 00:37:03;;;;;;;7.80;3.97;;;;;;;16.08;84.89;99692.53;4906701;29;20023;-81
2021/07/31 00:39:29;;;;;;;11.00;4.35;;;;;;;15.64;84.69;99630.38;4921447;29;20032;-83
2021/07/31 00:41:55;;;;;;;10.05;4.32;;;;;;;15.95;85.07;99682.16;4921972;29;20017;-83
2021/07/31 00:44:20;;;;;;;12.50;3.88;;;;;;;16.87;85.29;99824.69;4921426;29;20044;-82
2021/07/31 00:46:46;;;;;;;10.68;4.00;;;;;;;16.74;85.16;99797.97;4908473;29;20392;-83
2021/07/31 00:49:12;;;;;;;9.50;3.92;;;;;;;16.08;85.35;99706.09;4883717;29;20021;-83
2021/07/31 00:51:38;;;;;;;11.35;4.40;;;;;;;15.91;85.42;99684.56;4887684;29;20012;-84
2021/07/31 00:54:04;;;;;;;11.02;4.30;;;;;;;16.78;85.50;99807.25;4911269;29;20028;-82
2021/07/31 00:56:32;;;;;;;14.73;4.15;;;;;;;15.44;85.52;99624.84;4921414;29;20025;-82
2021/07/31 00:58:58;;;;;;;12.93;4.18;;;;;;;16.01;85.71;99697.38;4916296;29;20013;-83
2021/07/31 01:01:23;;;;;;;9.75;3.80;;;;;;;16.62;85.70;99810.94;4920880;29;20036;-83
2021/07/31 01:03:52;;;;;;;8.95;4.22;;;;;;;15.34;85.37;99608.50;4916202;29;20033;-83
2021/07/31 01:06:19;;;;;;;10.88;4.13;;;;;;;15.95;85.69;99699.22;4909569;29;20027;-83
2021/07/31 01:08:45;;;;;;;6.22;3.60;;;;;;;15.82;85.87;99691.56;4919995;29;20056;-83
2021/07/31 01:11:11;;;;;;;11.65;3.63;;;;;;;15.40;86.28;99642.69;4912748;29;20021;-82
2021/07/31 01:13:37;;;;;;;9.18;3.83;;;;;;;15.65;86.46;99688.97;4902018;29;20033;-82
2021/07/31 01:16:07;;;;;;;8.23;3.85;;;;;;;15.37;86.36;99644.03;4901877;29;20033;-82
2021/07/31 01:18:32;;;;;;;7.35;3.63;;;;;;;15.23;86.64;99629.25;4899666;29;20085;-82
2021/07/31 01:20:58;;;;;;;7.78;3.58;;;;;;;15.12;86.22;99611.28;4907217;29;20218;-83
2021/07/31 01:23:24;;;;;;;11.02;4.05;;;;;;;15.64;86.07;99695.47;4920640;29;20025;-83
2021/07/31 01:25:53;;;;;;;8.77;3.70;;;;;;;16.33;86.06;99788.78;4919374;29;20024;-83
2021/07/31 01:28:19;;;;;;;9.02;3.88;;;;;;;15.37;86.08;99646.75;4921127;29;20498;-82
2021/07/31 01:30:47;;;;;;;10.57;4.00;;;;;;;15.65;86.36;99688.97;4933353;29;20032;-83
2021/07/31 01:33:13;;;;;;;6.43;3.70;;;;;;;15.09;86.04;99600.97;4901284;29;20029;-83
2021/07/31 01:35:39;;;;;;;6.97;4.38;;;;;;;15.72;86.60;99683.34;4902349;29;20032;-83
2021/07/31 01:38:05;;;;;;;9.35;4.07;;;;;;;15.64;86.45;99681.91;4905317;29;20108;-82
2021/07/31 01:40:31;;;;;;;10.70;4.15;;;;;;;15.22;86.52;99612.19;4920945;29;20064;-82
2021/07/31 01:42:57;;;;;;;6.55;4.05;;;;;;;15.90;86.52;99729.06;4921119;29;20045;-82
2021/07/31 01:45:27;;;;;;;7.30;3.85;;;;;;;15.20;86.50;99602.69;4920724;29;20064;-83
2021/07/31 01:47:53;;;;;;;13.50;4.40;;;;;;;15.06;86.52;99588.75;4912552;29;20088;-83
2021/07/31 01:50:19;;;;;;;9.85;3.90;;;;;;;15.50;86.42;99630.03;4902376;29;20052;-82
2021/07/31 01:52:48;;;;;;;9.18;4.28;;;;;;;15.63;86.58;99661.31;4900609;29;20104;-83
2021/07/31 01:55:13;;;;;;;6.85;3.85;;;;;;;16.19;86.62;99743.09;4917331;29;20025;-82
2021/07/31 01:57:42;;;;;;;9.98;4.00;;;;;;;15.34;85.97;99605.78;4901584;29;20037;-82
2021/07/31 02:00:09;;;;;;;10.07;4.05;;;;;;;16.42;86.00;99765.47;4917642;29;20024;-83
2021/07/31 02:02:34;;;;;;;8.88;3.80;;;;;;;15.70;86.31;99659.22;4901258;29;20065;-83
2021/07/31 02:05:02;;;;;;;7.38;4.00;;;;;;;15.73;86.06;99660.59;4901244;29;20397;-83
2021/07/31 02:07:31;;;;;;;7.60;4.15;;;;;;;15.47;86.19;99608.03;4901698;29;20006;-83
2021/07/31 02:09:57;;;;;;;8.13;4.10;;;;;;;15.93;86.33;99671.56;4901595;29;20079;-83
2021/07/31 02:12:26;;;;;;;7.78;4.03;;;;;;;15.69;86.29;99632.34;4902207;29;20049;-83
2021/07/31 02:14:52;;;;;;;7.57;3.75;;;;;;;15.26;86.24;99555.56;4899533;29;20033;-82
2021/07/31 02:17:18;;;;;;;9.43;4.07;;;;;;;16.13;86.54;99680.91;4901902;29;20033;-83
2021/07/31 02:19:44;;;;;;;10.10;4.07;;;;;;;15.86;86.30;99633.00;4900858;29;20017;-82
2021/07/31 02:22:10;;;;;;;7.18;3.95;;;;;;;15.82;85.78;99631.88;4915949;29;20021;-83
2021/07/31 02:24:35;;;;;;;7.88;4.15;;;;;;;16.64;85.69;99738.16;4900690;29;20048;-83
2021/07/31 02:27:01;;;;;;;9.73;4.85;;;;;;;15.54;85.72;99561.72;4901187;29;20036;-83
2021/07/31 02:29:27;;;;;;;11.25;5.00;;;;;;;16.65;86.38;99743.34;4901452;29;20016;-82
2021/07/31 02:31:53;;;;;;;9.23;4.88;;;;;;;15.47;86.69;99543.78;4901298;29;20020;-82
2021/07/31 02:34:19;;;;;;;9.82;5.10;;;;;;;15.46;87.21;99542.19;4902005;29;20036;-83
2021/07/31 02:36:44;;;;;;;10.05;4.93;;;;;;;16.11;87.66;99634.22;4901998;29;20065;-83
2021/07/31 02:39:10;;;;;;;8.38;4.57;;;;;;;15.85;87.43;99604.22;4885419;29;20042;-82
2021/07/31 02:41:36;;;;;;;11.98;5.50;;;;;;;16.16;88.03;99647.81;4882187;29;20134;-82
2021/07/31 02:44:02;;;;;;;11.60;5.68;;;;;;;16.03;88.14;99626.59;4883407;29;20058;-84
2021/07/31 02:46:28;;;;;;;10.85;5.45;;;;;;;15.85;88.16;99587.94;4885815;29;20081;-83
2021/07/31 02:48:54;;;;;;;14.10;5.57;;;;;;;16.13;88.12;99627.44;4886821;29;20017;-82
2021/07/31 02:51:20;;;;;;;9.68;5.22;;;;;;;16.02;87.90;99608.66;4886273;29;20038;-83
2021/07/31 02:53:46;;;;;;;11.80;5.25;;;;;;;16.06;88.11;99607.03;4885726;29;20061;-83
2021/07/31 02:56:12;;;;;;;7.53;4.97;;;;;;;16.38;88.33;99669.34;4886895;29;20074;-82
2021/07/31 02:58:37;;;;;;;9.90;5.03;;;;;;;16.07;88.11;99609.50;4886261;29;20026;-83
2021/07/31 03:01:05;;;;;;;8.93;5.28;;;;;;;15.81;88.05;99567.06;4885182;29;20041;-83
2021/07/31 03:03:30;;;;;;;12.48;5.30;;;;;;;16.79;88.44;99721.97;4885174;29;20022;-82
2021/07/31 03:05:58;;;;;;;9.15;5.75;;;;;;;16.08;88.56;99613.03;4885534;29;20100;-82
2021/07/31 03:08:27;;;;;;;12.90;5.75;;;;;;;15.78;88.60;99573.81;4886589;29;20014;-83
2021/07/31 03:10:55;;;;;;;14.95;5.88;;;;;;;15.72;88.89;99547.75;4887010;29;20005;-84
2021/07/31 03:13:21;;;;;;;9.85;5.72;;;;;;;16.73;88.93;99716.75;4886215;29;20024;-83
2021/07/31 03:15:46;;;;;;;11.68;6.35;;;;;;;15.53;88.82;99531.09;4886212;29;20022;-82
2021/07/31 03:18:12;;;;;;;10.77;5.68;;;;;;;16.75;89.21;99712.69;4885100;29;20037;-83
2021/07/31 03:20:38;;;;;;;10.68;5.65;;;;;;;15.67;89.09;99556.69;4886550;29;20033;-84
2021/07/31 03:23:05;;;;;;;12.25;5.78;;;;;;;16.76;89.03;99717.06;4885235;29;20037;-83
2021/07/31 03:25:31;;;;;;;10.57;5.65;;;;;;;16.09;89.56;99606.50;4884363;29;20048;-83
2021/07/31 03:27:56;;;;;;;10.00;5.65;;;;;;;16.77;89.54;99707.00;4904409;29;20338;-83
2021/07/31 03:30:22;;;;;;;8.50;5.40;;;;;;;16.80;89.24;99720.88;4904484;29;20017;-83
2021/07/31 03:32:48;;;;;;;13.45;5.90;;;;;;;16.09;89.07;99599.22;4885856;29;20085;-83
2021/07/31 03:35:14;;;;;;;8.68;5.95;;;;;;;15.66;89.21;99532.50;4885873;29;20033;-82
2021/07/31 03:37:40;;;;;;;14.30;6.47;;;;;;;16.82;89.64;99702.41;4890258;29;20076;-82
2021/07/31 03:40:06;;;;;;;9.52;6.18;;;;;;;16.10;89.61;99594.59;4903146;29;20029;-82
2021/07/31 03:42:32;;;;;;;10.02;5.95;;;;;;;16.17;89.64;99600.59;4904249;29;20099;-82
2021/07/31 03:44:57;;;;;;;13.38;6.90;;;;;;;16.21;89.68;99590.81;4893131;29;20018;-82
2021/07/31 03:47:23;;;;;;;8.70;5.47;;;;;;;16.07;89.80;99568.00;4919162;29;20032;-83
2021/07/31 03:49:51;;;;;;;11.35;6.15;;;;;;;16.64;89.86;99649.34;4922188;29;20034;-83
2021/07/31 03:52:17;;;;;;;10.88;5.70;;;;;;;15.72;89.58;99509.78;4890900;29;20090;-82
2021/07/31 03:54:43;;;;;;;10.75;5.60;;;;;;;15.78;89.53;99516.03;4885906;29;20017;-83
2021/07/31 03:57:08;;;;;;;11.40;5.68;;;;;;;16.72;89.66;99658.88;4903110;29;20048;-83
2021/07/31 03:59:34;;;;;;;7.30;4.82;;;;;;;16.94;89.26;99679.59;4913745;29;20048;-82
2021/07/31 04:02:02;;;;;;;10.48;4.85;;;;;;;16.40;88.93;99610.19;4893336;29;20009;-83
2021/07/31 04:04:29;;;;;;;9.35;4.80;;;;;;;16.64;89.01;99648.53;4911859;29;20045;-83
2021/07/31 04:06:58;;;;;;;10.63;5.05;;;;;;;16.56;88.80;99624.63;4903643;29;20005;-84
2021/07/31 04:09:24;;;;;;;10.48;5.18;;;;;;;16.97;89.17;99696.19;4905296;29;20000;-83
2021/07/31 04:11:51;;;;;;;8.68;4.93;;;;;;;16.03;89.10;99539.75;4922439;29;20029;-82
2021/07/31 04:14:17;;;;;;;9.38;5.40;;;;;;;16.36;89.00;99592.78;4920324;29;20021;-82
2021/07/31 04:16:43;;;;;;;8.52;4.78;;;;;;;16.29;88.58;99582.19;4903157;29;20089;-82
2021/07/31 04:19:08;;;;;;;8.57;4.80;;;;;;;16.62;88.54;99646.09;4903662;29;20026;-82
2021/07/31 04:21:34;;;;;;;11.50;5.15;;;;;;;15.90;88.35;99519.34;4902657;29;20029;-82
2021/07/31 04:24:00;;;;;;;7.80;4.53;;;;;;;16.20;88.39;99562.06;4901353;29;20074;-85
2021/07/31 04:26:26;;;;;;;8.88;4.90;;;;;;;16.25;88.08;99564.78;4896695;29;20076;-81
2021/07/31 04:28:51;;;;;;;13.07;5.30;;;;;;;17.16;88.25;99701.13;4895296;29;20033;-82
2021/07/31 04:31:17;;;;;;;11.63;4.75;;;;;;;16.68;87.99;99611.59;4913371;29;20036;-82
2021/07/31 04:33:44;;;;;;;7.05;4.65;;;;;;;16.36;87.85;99561.03;4916707;29;20039;-82
2021/07/31 04:36:10;;;;;;;9.38;4.80;;;;;;;16.96;88.10;99655.72;4911006;29;20050;-82
2021/07/31 04:38:37;;;;;;;10.10;4.50;;;;;;;16.17;87.76;99536.25;4887105;29;20033;-83
2021/07/31 04:41:04;;;;;;;8.32;4.22;;;;;;;16.11;87.67;99515.63;4903594;29;20017;-82
2021/07/31 04:43:33;;;;;;;8.35;4.45;;;;;;;16.41;87.44;99569.16;4903250;29;20044;-82
2021/07/31 04:46:00;;;;;;;14.57;4.57;;;;;;;16.41;87.41;99555.59;4902950;29;20029;-83
2021/07/31 04:48:27;;;;;;;10.50;4.80;;;;;;;16.58;87.55;99568.13;4903179;29;20005;-83
2021/07/31 04:51:03;;;;;;;9.82;4.10;;;;;;;16.36;87.58;99539.31;4902866;29;20056;-83
2021/07/31 04:53:30;;;;;;;10.80;4.30;;;;;;;16.46;87.14;99538.53;4904634;29;20033;-82
2021/07/31 04:55:56;;;;;;;7.15;4.03;;;;;;;17.58;87.57;99706.31;4904191;29;20096;-82
2021/07/31 04:58:23;;;;;;;8.57;4.55;;;;;;;16.52;87.32;99548.28;4903668;29;20033;-83
2021/07/31 05:00:49;;;;;;;8.30;4.30;;;;;;;16.82;87.77;99591.03;4903550;29;20037;-84
2021/07/31 05:03:16;;;;;;;7.43;4.10;;;;;;;16.76;87.55;99575.00;4903978;29;20052;-84
2021/07/31 05:05:45;;;;;;;6.55;4.20;;;;;;;16.91;87.69;99591.28;4891772;29;20009;-83
2021/07/31 05:08:15;;;;;;;9.07;4.28;;;;;;;16.45;87.52;99532.25;4901986;29;20045;-83
2021/07/31 05:10:48;;;;;;;4.85;3.83;;;;;;;17.25;87.82;99637.78;4884726;29;20073;-83
2021/07/31 05:13:14;;;;;;;9.02;4.15;;;;;;;17.06;87.30;99601.38;4886907;29;20028;-83
2021/07/31 05:15:42;;;;;;;8.10;4.20;;;;;;;16.60;87.12;99533.38;4902403;29;20081;-83
2021/07/31 05:18:09;;;;;;;9.20;3.90;;;;;;;17.37;87.32;99635.59;4903400;29;20029;-82
2021/07/31 05:20:41;;;;;;;7.72;3.67;;;;;;;16.98;86.93;99569.28;4899470;29;20025;-82
2021/07/31 05:23:07;;;;;;;9.20;3.58;;;;;;;17.11;86.93;99593.19;4902455;29;20040;-83
2021/07/31 05:25:33;;;;;;;8.43;4.15;;;;;;;17.02;86.92;99581.22;4898380;29;20081;-82
2021/07/31 05:27:59;;;;;;;10.10;3.80;;;;;;;17.37;86.77;99634.78;4880514;29;20033;-82
2021/07/31 05:33:02;;;;;;;10.23;3.97;;;;;;;17.34;86.82;99635.34;4943243;23;20057;-82
2021/07/31 05:35:28;;;;;;;6.20;3.80;;;;;;;17.22;86.44;99594.84;4882976;29;20104;-82
2021/07/31 05:37:53;;;;;;;7.15;3.90;;;;;;;17.12;86.35;99567.66;4899916;29;20051;-82
2021/07/31 05:40:19;;;;;;;7.72;3.80;;;;;;;16.80;86.29;99517.13;4919989;23;20058;-83
2021/07/31 05:42:45;;;;;;;9.13;4.00;;;;;;;17.95;86.43;99678.84;5302420;23;20072;-84
2021/07/31 05:45:11;;;;;;;9.68;3.75;;;;;;;17.71;86.14;99651.34;4883211;29;20038;-83
2021/07/31 05:47:36;;;;;;;9.00;3.53;;;;;;;17.82;86.10;99646.75;4883278;29;20029;-82
2021/07/31 05:50:07;;;;;;;9.38;4.15;;;;;;;17.69;86.15;99620.88;4886459;29;20009;-82
2021/07/31 05:52:40;;;;;;;8.00;3.40;;;;;;;16.96;85.75;99503.53;4883714;29;20061;-82
2021/07/31 05:55:07;;;;;;;8.20;3.80;;;;;;;17.04;85.51;99511.13;4880765;29;20021;-84
2021/07/31 05:57:33;;;;;;;8.30;3.75;;;;;;;17.57;85.38;99580.38;4884833;29;20017;-81
2021/07/31 06:02:33;;;;;;;7.82;3.40;;;;;;;17.19;85.08;99502.16;4846406;29;20061;-83
2021/07/31 06:04:59;;;;;;;11.63;3.60;;;;;;;17.67;84.79;99568.66;4846166;29;20369;-82
2021/07/31 06:07:24;;;;;;;10.32;3.83;;;;;;;18.43;84.52;99681.13;4855570;29;20022;-82
2021/07/31 06:09:50;;;;;;;7.28;3.40;;;;;;;17.76;84.11;99572.47;4847012;29;20035;-84
2021/07/31 06:12:18;;;;;;;5.30;2.88;;;;;;;17.41;83.67;99518.13;4844899;29;20030;-83
2021/07/31 06:14:44;;;;;;;8.82;3.63;;;;;;;17.35;83.50;99501.84;4838760;29;20102;-82
2021/07/31 06:17:09;;;;;;;8.05;3.00;;;;;;;17.52;83.63;99511.59;4850316;29;20058;-81
2021/07/31 06:19:35;;;;;;;7.28;3.05;;;;;;;17.75;83.10;99554.50;4864817;29;20034;-82
2021/07/31 06:22:02;;;;;;;8.23;3.08;;;;;;;17.74;83.34;99550.13;4850461;29;20082;-83
2021/07/31 06:24:28;;;;;;;9.10;3.65;;;;;;;17.49;83.02;99517.56;4973207;23;20071;-81
2021/07/31 06:26:54;;;;;;;7.95;2.95;;;;;;;18.23;82.79;99612.03;5287599;23;21083;-82
2021/07/31 06:34:30;;;;;;;8.63;3.10;;;;;;;17.96;82.38;99573.50;5084590;23;20045;-83
2021/07/31 06:36:56;;;;;;;8.98;2.65;;;;;;;17.70;82.25;99530.00;4871173;29;20066;-84
2021/07/31 06:39:23;;;;;;;8.40;3.15;;;;;;;17.76;82.31;99536.25;4887073;29;20042;-83
2021/07/31 06:41:48;;;;;;;5.40;2.53;;;;;;;18.16;82.69;99613.44;4887085;29;20040;-84
2021/07/31 06:44:14;;;;;;;8.63;3.25;;;;;;;17.89;82.39;99556.66;4885981;29;20029;-82
2021/07/31 06:46:40;;;;;;;5.68;2.78;;;;;;;17.99;82.33;99564.78;4887367;29;20078;-83
2021/07/31 06:49:07;;;;;;;8.27;2.85;;;;;;;18.37;81.96;99625.03;4891176;29;20029;-85
2021/07/31 06:51:32;;;;;;;7.90;2.95;;;;;;;18.08;81.74;99574.00;4902008;29;20037;-85
2021/07/31 06:54:03;;;;;;;7.53;2.70;;;;;;;17.60;81.46;99495.50;4901539;29;20029;-86
2021/07/31 07:32:41;;;;;;;8.40;2.25;;;;;;;18.57;77.81;99513.25;5078710;23;20062;-85
2021/07/31 07:35:07;;;;;;;5.85;2.22;;;;;;;18.96;77.91;99575.13;4886142;29;20111;-85
2021/07/31 07:55:31;;;;;;;5.43;2.05;;;;;;;19.45;74.89;99527.78;5791006;23;21134;-85
2021/07/31 07:57:57;;;;;;;5.03;1.92;;;;;;;19.24;74.71;99500.72;4888184;29;20131;-84
2021/07/31 08:00:23;;;;;;;8.82;2.50;;;;;;;19.50;74.88;99541.34;4890156;29;20017;-84
2021/07/31 08:02:52;;;;;;;4.80;1.98;;;;;;;20.30;74.93;99671.03;4892869;29;20192;-84
2021/07/31 08:05:17;;;;;;;6.78;2.10;;;;;;;19.83;74.97;99594.25;4879583;29;20020;-84
2021/07/31 08:07:44;;;;;;;5.15;1.85;;;;;;;19.80;74.53;99602.19;4884433;29;20049;-84
2021/07/31 08:10:12;;;;;;;5.63;2.35;;;;;;;19.07;73.73;99481.22;4890641;29;20010;-85
2021/07/31 08:15:13;;;;;;;7.22;2.28;;;;;;;19.56;72.58;99537.47;5399507;23;20074;-81
2021/07/31 09:14:28;;;;;;;5.97;3.33;;;;;;;21.15;65.70;99499.75;4874185;23;20050;-81
2021/07/31 09:16:57;;;;;;;11.65;3.72;;;;;;;21.48;65.97;99539.66;4934052;23;20072;-81
2021/07/31 09:19:25;;;;;;;7.85;3.25;;;;;;;21.45;65.86;99580.50;4856451;29;20034;-79
2021/07/31 09:22:00;;;;;;;10.30;3.55;;;;;;;21.23;66.34;99589.34;4854452;29;20030;-79
2021/07/31 09:24:26;;;;;;;9.57;3.42;;;;;;;21.65;66.93;99655.97;4862529;29;20028;-82
2021/07/31 09:26:53;;;;;;;12.82;3.90;;;;;;;21.31;67.67;99616.00;4862557;29;20053;-83
2021/07/31 09:29:40;;;;;;;6.68;3.47;;;;;;;21.55;67.31;99656.94;4864380;29;20034;-81
2021/07/31 09:32:06;;;;;;;7.10;3.47;;;;;;;21.53;67.91;99651.78;4864632;29;20010;-83
2021/07/31 09:37:23;;;;;;;7.50;3.45;;;;;;;21.82;66.93;99653.47;4859867;29;20042;-82
2021/07/31 09:39:48;;;;;;;9.07;3.50;;;;;;;21.81;66.94;99649.09;4863332;29;20018;-83
2021/07/31 09:42:33;;;;;;;8.23;4.00;;;;;;;20.73;66.71;99471.47;4861171;29;20020;-82
2021/07/31 09:45:05;;;;;;;7.43;3.42;;;;;;;21.55;65.93;99583.84;4863562;29;20077;-82
2021/07/31 09:47:31;;;;;;;8.85;3.53;;;;;;;21.24;66.15;99525.31;4847599;29;20094;-82
2021/07/31 09:50:01;;;;;;;9.35;3.60;;;;;;;20.77;65.93;99467.88;4845277;29;20039;-82
2021/07/31 09:52:28;;;;;;;7.32;3.13;;;;;;;20.91;65.38;99478.81;4853711;29;20020;-81
2021/07/31 09:54:59;;;;;;;12.75;3.47;;;;;;;21.84;64.99;99637.53;4849533;29;20041;-81
2021/07/31 09:57:29;;;;;;;7.10;3.20;;;;;;;22.08;65.73;99642.03;4849656;29;20041;-82
2021/07/31 10:00:00;;;;;;;8.10;3.90;;;;;;;21.35;65.61;99543.97;4849635;29;20030;-81
2021/07/31 10:02:30;;;;;;;7.35;3.47;;;;;;;21.38;65.68;99484.31;4847917;29;20051;-82
2021/07/31 10:04:55;;;;;;;6.75;3.30;;;;;;;21.83;65.07;99537.34;4862668;29;20034;-81
2021/07/31 10:07:24;;;;;;;6.88;3.25;;;;;;;22.26;65.18;99602.78;4849977;29;20041;-82
2021/07/31 10:09:53;;;;;;;7.25;3.63;;;;;;;21.67;64.17;99516.84;4849248;29;20083;-83
2021/07/31 10:12:36;;;;;;;9.57;3.72;;;;;;;22.26;64.52;99628.25;4850470;29;20021;-82
2021/07/31 10:15:04;;;;;;;11.88;3.90;;;;;;;21.62;64.54;99527.91;4846843;29;20035;-82
2021/07/31 10:17:34;;;;;;;6.65;3.40;;;;;;;21.84;64.80;99549.91;4850908;29;20026;-83
2021/07/31 10:25:14;;;;;;;9.90;3.78;;;;;;;21.72;63.85;99460.09;5809066;23;19996;-83
2021/07/31 10:27:40;;;;;;;10.73;4.03;;;;;;;21.51;64.02;99462.41;4874227;29;20082;-83
2021/07/31 11:10:44;;;;;;;7.85;3.50;;;;;;;22.79;63.50;99612.31;5778844;23;21349;-80
2021/07/31 11:13:32;;;;;;;10.77;3.95;;;;;;;22.67;63.22;99610.13;4884214;29;20038;-82
2021/07/31 11:16:04;;;;;;;7.85;3.30;;;;;;;22.79;64.12;99607.66;5049591;23;20046;-81
2021/07/31 11:18:36;;;;;;;8.45;3.67;;;;;;;22.58;63.54;99574.38;4978794;23;20042;-81
2021/07/31 12:05:02;;;;;;;8.55;4.85;;;;;;;22.37;63.65;99491.00;5749584;23;20062;-83
2021/07/31 12:07:28;;;;;;;9.20;4.82;;;;;;;23.00;64.18;99607.19;4866096;29;20038;-82
2021/07/31 18:01:30;;;;;;;8.50;2.30;;;;;;;18.58;75.17;99362.34;5800952;23;20820;-80
2021/07/31 19:39:57;;;;;;;8.20;1.85;;;;;;;17.35;70.12;99539.06;5466786;23;20030;-84
2021/07/31 19:42:27;;;;;;;6.53;1.45;;;;;;;15.98;70.03;99327.03;4866882;29;20034;-82
2021/07/31 19:44:53;;;;;;;5.97;2.00;;;;;;;16.89;69.91;99471.22;5401471;23;20266;-83
2021/07/31 19:47:19;;;;;;;5.97;1.85;;;;;;;16.50;69.96;99422.84;4867654;29;20042;-82
2021/07/31 19:49:45;;;;;;;8.20;1.80;;;;;;;16.15;69.74;99362.03;4863502;29;20071;-84
2021/07/31 19:52:11;;;;;;;5.43;1.52;;;;;;;16.16;69.64;99379.97;4876928;29;20050;-85
2021/07/31 19:54:38;;;;;;;7.97;2.10;;;;;;;16.18;69.70;99402.19;4884771;29;20025;-83
2021/07/31 19:57:05;;;;;;;5.93;1.63;;;;;;;16.27;70.18;99416.06;4886378;29;20033;-84
2021/07/31 19:59:30;;;;;;;7.90;1.40;;;;;;;16.21;70.18;99427.97;4884851;29;20288;-85
2021/07/31 20:17:28;;;;;;;5.40;1.60;;;;;;;15.32;72.08;99347.75;5274012;23;20262;-82
2021/07/31 20:25:05;;;;;;;6.68;1.60;;;;;;;16.82;73.05;99566.56;5533112;23;20045;-83
2021/07/31 20:27:32;;;;;;;4.85;1.20;;;;;;;16.35;72.85;99499.66;4866885;29;20071;-82
2021/07/31 20:29:58;;;;;;;10.60;2.10;;;;;;;16.08;73.08;99447.50;4874625;29;20061;-82
2021/07/31 20:40:13;;;;;;;8.82;1.83;;;;;;;16.98;73.93;99564.66;5516088;23;20058;-85
2021/07/31 20:42:39;;;;;;;8.07;2.00;;;;;;;16.09;73.51;99425.53;4868925;29;20014;-84
2021/07/31 20:45:07;;;;;;;8.38;1.98;;;;;;;16.06;73.55;99425.25;4866320;29;20094;-84
